Time;durP1;ratioP1;P1;durP2;ratioP2;P2;SDS_P1;SDS_P2;PMS_P1;PMS_P2;Temp;Humidity;BMP_temperature;BMP_pressure;BME280_temperature;BME280_humidity;BME280_pressure;Samples;Min_cycle;Max_cycle;Signal;HPM_P1;HPM_P2
2023/07/20 00:02:27;;;;;;;;;;;;;;;;;;4377205;32;69083;-59
2023/07/20 00:05:14;;;;;;;6.35;2.85;;;;;;;;;;4388273;32;70189;-59
2023/07/20 00:08:00;;;;;;;;;;;;;;;;;;4387995;32;69144;-58
2023/07/20 00:10:47;;;;;;;5.97;2.80;;;;;;;;;;4387574;32;68361;-59
2023/07/20 00:13:33;;;;;;;4.18;2.60;;;;;;;;;;4377500;32;71512;-59
2023/07/20 00:16:20;;;;;;;3.53;2.62;;;;;;;;;;4398639;32;65939;-59
2023/07/20 00:19:08;;;;;;;;;;;;;;;;;;4400340;32;68121;-60
2023/07/20 00:21:55;;;;;;;4.47;2.50;;;;;;;;;;4387806;32;59983;-60
2023/07/20 00:24:41;;;;;;;3.85;2.28;;;;;;;;;;4365737;32;71293;-59
2023/07/20 00:27:28;;;;;;;3.58;2.30;;;;;;;;;;4377180;32;69545;-59
2023/07/20 00:30:14;;;;;;;;;;;;;;;;;;4387411;32;67926;-60
2023/07/20 00:33:03;;;;;;;3.33;2.30;;;;;;;;;;4376853;32;59286;-59
2023/07/20 00:35:49;;;;;;;2.20;2.00;;;;;;;;;;4377104;32;70395;-59
2023/07/20 00:38:36;;;;;;;3.58;2.40;;;;;;;;;;4387740;32;68244;-58
2023/07/20 00:41:23;;;;;;;3.08;2.00;;;;;;;;;;4398246;32;67325;-59
2023/07/20 00:44:10;;;;;;;2.15;1.95;;;;;;;;;;4387642;32;71804;-59
2023/07/20 00:46:58;;;;;;;2.08;1.70;;;;;;;;;;4399715;32;66026;-59
2023/07/20 00:49:46;;;;;;;2.42;1.77;;;;;;;;;;4376483;32;67383;-58
2023/07/20 00:52:33;;;;;;;2.70;1.90;;;;;;;;;;4365996;32;59875;-58
2023/07/20 00:55:21;;;;;;;2.45;1.60;;;;;;;;;;4376243;32;71390;-59
2023/07/20 00:58:07;;;;;;;2.92;1.90;;;;;;;;;;4376020;32;66830;-59
2023/07/20 01:00:55;;;;;;;3.03;1.80;;;;;;;;;;4387671;32;67727;-59
2023/07/20 01:03:42;;;;;;;3.17;1.95;;;;;;;;;;4387573;32;60224;-59
2023/07/20 01:06:32;;;;;;;2.25;1.90;;;;;;;;;;4376044;32;71852;-59
2023/07/20 01:09:59;;;;;;;2.87;1.77;;;;;;;;;;4397758;32;69108;-59
2023/07/20 01:12:52;;;;;;;2.42;1.60;;;;;;;;;;4366316;32;66488;-60
2023/07/20 01:15:39;;;;;;;3.45;2.05;;;;;;;;;;4365173;32;72531;-59
2023/07/20 01:18:26;;;;;;;2.10;1.87;;;;;;;;;;4398125;32;65739;-58
2023/07/20 01:21:26;;;;;;;2.55;2.00;;;;;;;;;;4387616;32;69524;-59
2023/07/20 01:24:19;;;;;;;4.57;2.30;;;;;;;;;;4376582;32;68054;-59
2023/07/20 01:27:27;;;;;;;3.70;2.03;;;;;;;;;;4397594;32;71651;-58
2023/07/20 01:30:16;;;;;;;3.42;2.00;;;;;;;;;;4397842;32;65842;-58
2023/07/20 01:33:03;;;;;;;4.82;2.00;;;;;;;;;;4376368;32;68346;-58
2023/07/20 01:35:55;;;;;;;2.50;2.00;;;;;;;;;;4387240;32;60062;-58
2023/07/20 01:38:41;;;;;;;4.07;2.37;;;;;;;;;;4397704;32;70253;-59
2023/07/20 01:41:28;;;;;;;2.20;2.00;;;;;;;;;;4375653;32;69774;-59
2023/07/20 01:44:14;;;;;;;;;;;;;;;;;;4376188;32;68731;-59
2023/07/20 01:47:01;;;;;;;3.50;2.23;;;;;;;;;;4387422;32;59634;-59
2023/07/20 01:49:48;;;;;;;3.28;2.12;;;;;;;;;;4375515;32;70247;-59
2023/07/20 01:52:34;;;;;;;;;;;;;;;;;;4387398;32;69494;-59
2023/07/20 01:55:20;;;;;;;3.78;2.47;;;;;;;;;;4397517;32;67568;-59
2023/07/20 01:58:08;;;;;;;2.47;2.00;;;;;;;;;;4386721;32;71715;-58
2023/07/20 02:00:54;;;;;;;;;;;;;;;;;;4376673;32;66567;-58
2023/07/20 02:03:41;;;;;;;4.93;2.17;;;;;;;;;;4388356;32;68088;-58
2023/07/20 02:06:27;;;;;;;5.32;2.40;;;;;;;;;;4390740;32;60600;-59
2023/07/20 02:09:15;;;;;;;3.28;2.40;;;;;;;;;;4392980;32;70335;-59
2023/07/20 02:12:01;;;;;;;3.42;2.20;;;;;;;;;;4370201;32;65720;-58
2023/07/20 02:14:51;;;;;;;4.30;2.40;;;;;;;;;;4390071;32;67045;-59
2023/07/20 02:17:37;;;;;;;4.78;2.47;;;;;;;;;;4376375;32;59383;-58
2023/07/20 02:20:25;;;;;;;5.32;2.95;;;;;;;;;;4387141;32;70637;-58
2023/07/20 02:23:11;;;;;;;3.12;2.20;;;;;;;;;;4387542;32;68938;-59
2023/07/20 02:25:58;;;;;;;4.18;2.60;;;;;;;;;;4377968;32;68317;-59
2023/07/20 02:28:44;;;;;;;;;;;;;;;;;;4400429;32;70933;-60
2023/07/20 02:31:32;;;;;;;3.72;2.40;;;;;;;;;;4399314;32;66291;-59
2023/07/20 02:34:19;;;;;;;4.35;2.40;;;;;;;;;;4386601;32;69142;-59
2023/07/20 02:37:06;;;;;;;5.37;2.58;;;;;;;;;;4386640;32;67784;-58
2023/07/20 02:39:55;;;;;;;3.12;2.20;;;;;;;;;;4375713;32;71666;-59
2023/07/20 02:42:43;;;;;;;3.72;2.53;;;;;;;;;;4386671;32;65015;-59
2023/07/20 02:45:29;;;;;;;7.68;2.85;;;;;;;;;;4375209;32;68499;-58
2023/07/20 02:48:16;;;;;;;5.40;2.58;;;;;;;;;;4397060;32;59127;-60
2023/07/20 02:51:02;;;;;;;4.65;2.72;;;;;;;;;;4375384;32;69817;-58
2023/07/20 02:53:49;;;;;;;4.78;2.50;;;;;;;;;;4396819;32;69293;-59
2023/07/20 02:56:35;;;;;;;;;;;;;;;;;;4386457;32;67157;-59
2023/07/20 02:59:22;;;;;;;6.37;2.58;;;;;;;;;;4397345;32;59927;-59
2023/07/20 03:02:11;;;;;;;;;;;;;;;;;;4375264;32;70957;-59
2023/07/20 03:04:58;;;;;;;3.30;2.42;;;;;;;;;;4396884;32;69339;-58
2023/07/20 03:07:45;;;;;;;5.40;2.47;;;;;;;;;;4396887;32;67791;-59
2023/07/20 03:10:32;;;;;;;4.70;2.20;;;;;;;;;;4386036;32;71894;-60
2023/07/20 03:13:18;;;;;;;4.82;2.50;;;;;;;;;;4375089;32;66889;-60
2023/07/20 03:16:11;;;;;;;2.45;2.15;;;;;;;;;;4396567;32;67174;-59
2023/07/20 03:18:57;;;;;;;5.25;2.60;;;;;;;;;;4396961;32;59268;-59
2023/07/20 03:21:45;;;;;;;3.15;2.42;;;;;;;;;;4385944;32;69605;-59
2023/07/20 03:24:32;;;;;;;;;;;;;;;;;;4397183;32;65914;-59
2023/07/20 03:27:20;;;;;;;7.25;2.50;;;;;;;;;;4398139;32;67461;-57
2023/07/20 03:30:07;;;;;;;3.35;2.37;;;;;;;;;;4397241;32;59142;-59
2023/07/20 03:32:54;;;;;;;4.10;2.50;;;;;;;;;;4377150;32;71542;-58
2023/07/20 03:35:42;;;;;;;;;;;;;;;;;;4388897;32;69613;-58
2023/07/20 03:38:30;;;;;;;4.25;2.47;;;;;;;;;;4399482;32;67624;-59
2023/07/20 03:41:16;;;;;;;;;;;;;;;;;;4388918;32;71783;-58
2023/07/20 03:44:03;;;;;;;8.07;2.93;;;;;;;;;;4399535;32;66100;-59
2023/07/20 03:46:50;;;;;;;;;;;;;;;;;;4388775;32;67120;-58
2023/07/20 03:49:36;;;;;;;7.82;2.65;;;;;;;;;;4400337;32;67979;-59
2023/07/20 03:52:23;;;;;;;5.18;2.83;;;;;;;;;;4376876;32;71611;-59
2023/07/20 03:55:10;;;;;;;5.32;3.05;;;;;;;;;;4376727;32;65840;-59
2023/07/20 03:57:57;;;;;;;5.60;2.87;;;;;;;;;;4377782;32;66980;-59
2023/07/20 04:00:47;;;;;;;8.73;2.72;;;;;;;;;;4388622;32;60403;-59
2023/07/20 04:03:35;;;;;;;6.55;3.17;;;;;;;;;;4398760;32;70539;-59
2023/07/20 04:06:22;;;;;;;4.70;3.22;;;;;;;;;;4388304;32;69272;-59
2023/07/20 04:09:08;;;;;;;;;;;;;;;;;;4400095;32;67722;-59
2023/07/20 04:11:55;;;;;;;4.95;3.08;;;;;;;;;;4399059;32;70996;-59
2023/07/20 04:14:42;;;;;;;8.45;3.37;;;;;;;;;;4398683;32;70401;-59
2023/07/20 04:17:29;;;;;;;6.95;3.78;;;;;;;;;;4377269;32;69185;-58
2023/07/20 04:20:17;;;;;;;9.02;3.70;;;;;;;;;;4388155;32;67771;-58
2023/07/20 04:23:04;;;;;;;6.87;3.47;;;;;;;;;;4400048;32;71644;-59
2023/07/20 04:25:52;;;;;;;7.68;3.70;;;;;;;;;;4388083;32;66041;-59
2023/07/20 04:28:42;;;;;;;5.32;3.20;;;;;;;;;;4377326;32;67549;-59
2023/07/20 04:31:33;;;;;;;7.22;3.80;;;;;;;;;;4388275;32;59272;-59
2023/07/20 04:34:19;;;;;;;6.65;3.90;;;;;;;;;;4377406;32;70884;-58
2023/07/20 04:37:07;;;;;;;5.50;4.10;;;;;;;;;;4377015;32;69492;-60
2023/07/20 04:39:53;;;;;;;6.70;3.65;;;;;;;;;;4376463;32;67700;-59
2023/07/20 04:42:41;;;;;;;5.78;2.92;;;;;;;;;;4398006;32;59713;-59
2023/07/20 04:45:27;;;;;;;6.70;3.95;;;;;;;;;;4398320;32;70451;-58
2023/07/20 04:48:17;;;;;;;6.10;3.90;;;;;;;;;;4398332;32;69622;-59
2023/07/20 04:51:05;;;;;;;8.32;4.75;;;;;;;;;;4377005;32;68097;-59
2023/07/20 04:53:52;;;;;;;10.13;3.90;;;;;;;;;;4398240;32;72034;-58
2023/07/20 04:56:38;;;;;;;7.30;4.32;;;;;;;;;;4376681;32;64904;-59
2023/07/20 04:59:25;;;;;;;7.97;3.20;;;;;;;;;;4377186;32;67000;-58
2023/07/20 05:02:12;;;;;;;;;;;;;;;;;;4376700;32;67963;-58
2023/07/20 05:04:59;;;;;;;8.23;3.70;;;;;;;;;;4386712;32;72755;-58
2023/07/20 05:07:45;;;;;;;;;;;;;;;;;;4387714;32;64893;-59
2023/07/20 05:10:32;;;;;;;4.62;3.37;;;;;;;;;;4369065;32;68044;-58
2023/07/20 05:13:19;;;;;;;5.18;3.00;;;;;;;;;;4346955;32;60330;-59
2023/07/20 05:16:05;;;;;;;6.05;3.78;;;;;;;;;;4367964;32;71008;-58
2023/07/20 05:18:52;;;;;;;6.30;3.47;;;;;;;;;;4356846;32;69150;-57
2023/07/20 05:21:39;;;;;;;2.42;1.90;;;;;;;;;;4346157;32;68299;-59
2023/07/20 05:24:26;;;;;;;3.95;2.75;;;;;;;;;;4357442;32;71759;-59
2023/07/20 05:27:13;;;;;;;8.65;3.75;;;;;;;;;;4356953;32;69618;-59
2023/07/20 05:30:00;;;;;;;5.37;3.10;;;;;;;;;;4346300;32;69318;-59
2023/07/20 05:32:50;;;;;;;5.80;3.58;;;;;;;;;;4356727;32;67758;-60
2023/07/20 05:35:37;;;;;;;5.28;3.37;;;;;;;;;;4367174;32;70784;-60
2023/07/20 05:38:25;;;;;;;5.22;3.80;;;;;;;;;;4346076;32;65694;-58
2023/07/20 05:41:12;;;;;;;7.45;3.70;;;;;;;;;;4367266;32;67844;-59
2023/07/20 05:43:58;;;;;;;4.75;3.20;;;;;;;;;;4345849;32;60062;-58
2023/07/20 05:46:45;;;;;;;;;;;;;;;;;;4356884;32;70550;-58
2023/07/20 05:49:31;;;;;;;8.35;3.35;;;;;;;;;;4356675;32;69219;-58
2023/07/20 05:52:18;;;;;;;7.18;3.92;;;;;;;;;;4345728;32;67904;-59
2023/07/20 05:55:05;;;;;;;;;;;;;;;;;;4367639;32;59169;-58
2023/07/20 05:57:51;;;;;;;7.22;3.50;;;;;;;;;;4346008;32;70055;-59
2023/07/20 06:00:38;;;;;;;7.53;3.60;;;;;;;;;;4366441;32;68991;-59
2023/07/20 06:03:25;;;;;;;5.87;3.70;;;;;;;;;;4335444;32;68378;-58
2023/07/20 06:06:12;;;;;;;8.65;4.30;;;;;;;;;;4345714;32;71350;-58
2023/07/20 06:09:03;;;;;;;7.18;4.20;;;;;;;;;;4359880;32;66051;-58
2023/07/20 06:11:50;;;;;;;5.60;3.37;;;;;;;;;;4375687;32;67715;-57
2023/07/20 06:14:37;;;;;;;5.20;2.90;;;;;;;;;;4376175;32;60358;-59
2023/07/20 06:17:23;;;;;;;;;;;;;;;;;;4376142;32;70823;-58
2023/07/20 06:20:11;;;;;;;5.18;3.15;;;;;;;;;;4376443;32;66439;-59
2023/07/20 06:22:58;;;;;;;7.07;3.55;;;;;;;;;;4375301;32;68388;-59
2023/07/20 06:25:45;;;;;;;7.28;3.28;;;;;;;;;;4375563;32;60786;-59
2023/07/20 06:28:32;;;;;;;5.03;3.30;;;;;;;;;;4396941;32;70818;-59
2023/07/20 06:31:18;;;;;;;;;;;;;;;;;;4375766;32;69358;-58
2023/07/20 06:34:04;;;;;;;6.25;2.58;;;;;;;;;;4386380;32;67037;-59
2023/07/20 06:36:51;;;;;;;3.40;1.85;;;;;;;;;;4386038;32;70778;-58
2023/07/20 06:39:37;;;;;;;3.15;1.85;;;;;;;;;;4375920;32;65942;-58
2023/07/20 06:42:25;;;;;;;3.40;2.05;;;;;;;;;;4386345;32;68983;-58
2023/07/20 06:45:12;;;;;;;4.55;2.25;;;;;;;;;;4375146;32;67593;-59
2023/07/20 06:47:59;;;;;;;4.43;2.45;;;;;;;;;;4396770;32;71570;-58
2023/07/20 06:50:45;;;;;;;2.42;1.37;;;;;;;;;;4385890;32;66844;-59
2023/07/20 06:53:32;;;;;;;4.12;1.60;;;;;;;;;;4386242;32;67834;-59
2023/07/20 06:56:19;;;;;;;4.85;2.05;;;;;;;;;;4396948;32;60387;-60
2023/07/20 06:59:06;;;;;;;2.08;1.60;;;;;;;;;;4386204;32;70449;-59
2023/07/20 07:01:52;;;;;;;5.32;2.03;;;;;;;;;;4386314;32;69713;-59
2023/07/20 07:04:40;;;;;;;3.97;1.87;;;;;;;;;;4385572;32;68186;-60
2023/07/20 07:07:26;;;;;;;;;;;;;;;;;;4365535;32;61143;-58
2023/07/20 07:10:13;;;;;;;2.83;1.50;;;;;;;;;;4386295;32;68457;-58
2023/07/20 07:13:00;;;;;;;2.25;1.65;;;;;;;;;;4375561;32;69385;-59
2023/07/20 07:15:46;;;;;;;3.08;1.50;;;;;;;;;;4397473;32;66756;-59
2023/07/20 07:18:33;;;;;;;4.50;2.10;;;;;;;;;;4386398;32;72463;-59
2023/07/20 07:21:20;;;;;;;2.10;1.90;;;;;;;;;;4387044;32;65875;-59
2023/07/20 07:24:07;;;;;;;;;;;;;;;;;;4378104;32;67603;-59
2023/07/20 07:26:54;;;;;;;3.85;1.90;;;;;;;;;;4397578;32;59314;-59
2023/07/20 07:29:40;;;;;;;1.58;1.45;;;;;;;;;;4388452;32;72934;-60
2023/07/20 07:32:27;;;;;;;2.72;1.52;;;;;;;;;;4399600;32;65998;-59
2023/07/20 07:35:14;;;;;;;3.05;2.00;;;;;;;;;;4388506;32;68092;-59
2023/07/20 07:38:00;;;;;;;2.58;1.55;;;;;;;;;;4400564;32;59248;-60
2023/07/20 07:40:47;;;;;;;;;;;;;;;;;;4410422;32;70231;-58
2023/07/20 07:43:35;;;;;;;4.87;1.95;;;;;;;;;;4409774;32;70078;-58
2023/07/20 07:46:21;;;;;;;4.25;2.35;;;;;;;;;;4394402;32;68093;-58
2023/07/20 07:49:08;;;;;;;3.33;2.15;;;;;;;;;;4381345;32;71313;-58
2023/07/20 07:51:55;;;;;;;2.50;1.85;;;;;;;;;;4374638;32;67674;-58
2023/07/20 07:54:42;;;;;;;3.28;1.80;;;;;;;;;;4374478;32;69727;-58
2023/07/20 07:57:28;;;;;;;2.75;2.10;;;;;;;;;;4374866;32;66733;-58
2023/07/20 08:00:18;;;;;;;3.70;2.10;;;;;;;;;;4385595;32;71882;-59
2023/07/20 08:03:07;;;;;;;3.60;1.90;;;;;;;;;;4385190;32;66499;-58
2023/07/20 08:05:58;;;;;;;5.43;2.20;;;;;;;;;;4375105;32;66859;-58
2023/07/20 08:08:45;;;;;;;3.78;1.90;;;;;;;;;;4385606;32;59076;-58
2023/07/20 08:11:33;;;;;;;2.83;1.98;;;;;;;;;;4374529;32;70634;-58
2023/07/20 08:14:20;;;;;;;2.83;2.10;;;;;;;;;;4374948;32;69312;-60
2023/07/20 08:17:07;;;;;;;3.97;1.92;;;;;;;;;;4387081;32;67683;-59
2023/07/20 08:19:53;;;;;;;5.20;1.75;;;;;;;;;;4377705;32;60297;-58
2023/07/20 08:22:40;;;;;;;4.37;2.00;;;;;;;;;;4388783;32;70771;-59
2023/07/20 08:25:27;;;;;;;2.28;1.83;;;;;;;;;;4398857;32;68343;-59
2023/07/20 08:28:15;;;;;;;3.15;1.77;;;;;;;;;;4399274;32;67903;-59
2023/07/20 08:31:02;;;;;;;3.97;2.12;;;;;;;;;;4387561;32;71401;-58
2023/07/20 08:33:49;;;;;;;3.85;1.92;;;;;;;;;;4398686;32;66177;-59
2023/07/20 08:36:37;;;;;;;3.20;2.00;;;;;;;;;;4388187;32;67148;-58
2023/07/20 08:39:24;;;;;;;3.50;2.05;;;;;;;;;;4388851;32;59205;-59
2023/07/20 08:42:11;;;;;;;3.22;1.70;;;;;;;;;;4386952;32;71275;-58
2023/07/20 08:44:58;;;;;;;2.85;1.98;;;;;;;;;;4398802;32;64952;-59
2023/07/20 08:47:46;;;;;;;3.95;1.80;;;;;;;;;;4387791;32;66960;-58
2023/07/20 08:50:34;;;;;;;4.30;1.70;;;;;;;;;;4377487;32;59206;-59
2023/07/20 08:53:21;;;;;;;3.37;1.77;;;;;;;;;;4376729;32;71394;-59
2023/07/20 08:56:11;;;;;;;1.70;1.58;;;;;;;;;;4375873;32;70177;-58
2023/07/20 08:58:58;;;;;;;3.80;2.00;;;;;;;;;;4365930;32;65162;-59
2023/07/20 09:01:45;;;;;;;2.45;1.80;;;;;;;;;;4387773;32;71874;-58
2023/07/20 09:04:32;;;;;;;2.58;1.55;;;;;;;;;;4376014;32;65071;-58
2023/07/20 09:07:22;;;;;;;3.90;1.83;;;;;;;;;;4376733;32;66947;-59
2023/07/20 09:10:10;;;;;;;2.00;1.48;;;;;;;;;;4387230;32;67817;-63
2023/07/20 09:12:57;;;;;;;1.73;1.40;;;;;;;;;;4386884;32;71212;-58
2023/07/20 09:15:50;;;;;;;3.65;1.73;;;;;;;;;;4387546;32;66328;-58
2023/07/20 09:18:38;;;;;;;2.53;1.65;;;;;;;;;;4387998;32;68125;-58
2023/07/20 09:21:30;;;;;;;5.10;2.05;;;;;;;;;;4376910;32;59784;-58
2023/07/20 09:24:21;;;;;;;2.78;1.67;;;;;;;;;;4387939;32;70439;-58
2023/07/20 09:27:09;;;;;;;3.95;1.95;;;;;;;;;;4387751;32;70337;-60
2023/07/20 09:29:58;;;;;;;1.92;1.55;;;;;;;;;;4379186;32;67751;-57
2023/07/20 09:32:50;;;;;;;1.70;1.30;;;;;;;;;;4391953;32;60552;-58
2023/07/20 09:35:37;;;;;;;3.40;1.70;;;;;;;;;;4391344;32;70690;-57
2023/07/20 09:38:24;;;;;;;4.85;1.85;;;;;;;;;;4378513;32;69721;-57
2023/07/20 09:41:15;;;;;;;3.50;1.85;;;;;;;;;;4387409;32;66856;-58
2023/07/20 09:44:02;;;;;;;4.80;1.90;;;;;;;;;;4386699;32;72303;-58
2023/07/20 09:46:50;;;;;;;1.87;1.60;;;;;;;;;;4376362;32;64872;-58
2023/07/20 09:49:43;;;;;;;2.53;1.60;;;;;;;;;;4386598;32;68452;-59
2023/07/20 09:52:31;;;;;;;2.20;1.58;;;;;;;;;;4376170;32;61585;-57
2023/07/20 09:55:17;;;;;;;1.92;1.25;;;;;;;;;;4386719;32;70373;-59
2023/07/20 09:58:06;;;;;;;2.78;1.30;;;;;;;;;;4387261;32;65105;-57
2023/07/20 10:00:54;;;;;;;2.92;1.70;;;;;;;;;;4386220;32;68482;-59
2023/07/20 10:03:42;;;;;;;1.95;1.40;;;;;;;;;;4397867;32;60190;-58
2023/07/20 10:06:31;;;;;;;4.80;1.65;;;;;;;;;;4375940;32;69502;-59
2023/07/20 10:09:20;;;;;;;3.95;1.83;;;;;;;;;;4386504;32;69314;-58
2023/07/20 10:12:08;;;;;;;3.80;1.40;;;;;;;;;;4386080;32;66540;-59
2023/07/20 10:15:28;;;;;;;4.95;2.00;;;;;;;;;;4397354;32;70875;-59
2023/07/20 10:18:29;;;;;;;4.25;1.90;;;;;;;;;;4386668;32;65893;-57
2023/07/20 10:21:19;;;;;;;3.22;2.00;;;;;;;;;;4386906;32;68061;-59
2023/07/20 10:24:07;;;;;;;4.78;2.37;;;;;;;;;;4386688;32;66714;-59
2023/07/20 10:26:55;;;;;;;2.53;1.55;;;;;;;;;;4396941;32;70793;-59
2023/07/20 10:29:42;;;;;;;2.33;1.70;;;;;;;;;;4375821;32;64753;-58
2023/07/20 10:32:30;;;;;;;2.22;1.62;;;;;;;;;;4386416;32;67902;-59
2023/07/20 10:35:17;;;;;;;4.97;1.92;;;;;;;;;;4375120;32;60903;-58
2023/07/20 10:38:05;;;;;;;2.65;1.37;;;;;;;;;;4386232;32;70550;-59
2023/07/20 10:40:56;;;;;;;2.65;1.77;;;;;;;;;;4375448;32;68367;-58
2023/07/20 10:43:46;;;;;;;4.00;1.98;;;;;;;;;;4374886;32;68075;-57
2023/07/20 10:46:43;;;;;;;2.90;1.50;;;;;;;;;;4375259;32;71474;-59
2023/07/20 10:49:30;;;;;;;4.18;1.73;;;;;;;;;;4375393;32;69715;-59
2023/07/20 10:52:17;;;;;;;1.62;1.30;;;;;;;;;;4386327;32;68208;-58
2023/07/20 10:55:19;;;;;;;;;;;;;;;;;;4397332;32;67670;-59
2023/07/20 10:58:15;;;;;;;2.05;1.75;;;;;;;;;;4396760;32;71914;-59
2023/07/20 11:01:03;;;;;;;3.78;2.03;;;;;;;;;;4397007;32;64933;-58
2023/07/20 11:03:50;;;;;;;2.45;1.40;;;;;;;;;;4375394;32;67774;-59
2023/07/20 11:06:40;;;;;;;1.40;1.17;;;;;;;;;;4385848;32;60042;-58
2023/07/20 11:09:32;;;;;;;1.85;1.40;;;;;;;;;;4385416;32;71249;-63
2023/07/20 11:12:19;;;;;;;2.37;1.58;;;;;;;;;;4375345;32;69198;-58
2023/07/20 11:15:06;;;;;;;2.35;1.70;;;;;;;;;;4386208;32;66893;-58
2023/07/20 11:17:53;;;;;;;1.60;1.50;;;;;;;;;;4385688;32;60051;-58
2023/07/20 11:20:40;;;;;;;;;;;;;;;;;;4385815;32;71140;-58
2023/07/20 11:23:27;;;;;;;3.55;1.95;;;;;;;;;;4375494;32;69176;-58
2023/07/20 11:26:15;;;;;;;4.57;2.15;;;;;;;;;;4385810;32;67658;-59
2023/07/20 11:29:03;;;;;;;4.00;2.10;;;;;;;;;;4385397;32;71338;-59
2023/07/20 11:31:50;;;;;;;4.12;1.90;;;;;;;;;;4386011;32;64752;-59
2023/07/20 11:34:37;;;;;;;2.95;1.87;;;;;;;;;;4385752;32;66758;-59
2023/07/20 11:37:24;;;;;;;1.67;1.35;;;;;;;;;;4396781;32;59283;-58
2023/07/20 11:40:11;;;;;;;2.25;1.50;;;;;;;;;;4396315;32;70415;-59
2023/07/20 11:42:58;;;;;;;2.78;1.50;;;;;;;;;;4375166;32;63428;-58
2023/07/20 11:45:46;;;;;;;4.55;1.48;;;;;;;;;;4364138;32;68247;-57
2023/07/20 11:48:33;;;;;;;4.93;2.00;;;;;;;;;;4386134;32;59241;-58
2023/07/20 11:51:20;;;;;;;4.10;2.05;;;;;;;;;;4386292;32;70539;-57
2023/07/20 11:54:08;;;;;;;2.75;1.92;;;;;;;;;;4377044;32;70118;-60
2023/07/20 11:56:56;;;;;;;3.60;1.60;;;;;;;;;;4377642;32;67807;-59
2023/07/20 11:59:57;;;;;;;3.62;1.65;;;;;;;;;;4377794;32;72380;-58
2023/07/20 12:02:44;;;;;;;2.05;1.73;;;;;;;;;;4366236;32;71176;-57
2023/07/20 12:05:31;;;;;;;2.78;2.12;;;;;;;;;;4388173;32;69231;-59
2023/07/20 12:08:17;;;;;;;1.95;1.55;;;;;;;;;;4387814;32;67946;-59
2023/07/20 12:11:04;;;;;;;2.87;1.60;;;;;;;;;;4398673;32;71920;-59
2023/07/20 12:13:51;;;;;;;3.62;1.58;;;;;;;;;;4388175;32;66117;-58
2023/07/20 12:16:38;;;;;;;4.57;1.85;;;;;;;;;;4377421;32;67074;-58
2023/07/20 12:19:26;;;;;;;1.98;1.77;;;;;;;;;;4366444;32;59700;-59
2023/07/20 12:22:13;;;;;;;2.35;1.52;;;;;;;;;;4388241;32;69721;-58
2023/07/20 12:25:00;;;;;;;1.90;1.50;;;;;;;;;;4377450;32;68309;-58
2023/07/20 12:27:48;;;;;;;2.80;1.80;;;;;;;;;;4398718;32;67057;-59
2023/07/20 12:30:34;;;;;;;2.97;1.65;;;;;;;;;;4388015;32;59156;-58
2023/07/20 12:33:21;;;;;;;2.35;1.75;;;;;;;;;;4387824;32;70474;-58
2023/07/20 12:36:08;;;;;;;3.05;1.67;;;;;;;;;;4387650;32;70081;-58
2023/07/20 12:38:55;;;;;;;3.30;2.03;;;;;;;;;;4377332;32;67824;-58
2023/07/20 12:41:42;;;;;;;2.87;1.55;;;;;;;;;;4398369;32;70634;-59
2023/07/20 12:44:28;;;;;;;;;;;;;;;;;;4377585;32;66282;-58
2023/07/20 12:47:15;;;;;;;3.47;1.60;;;;;;;;;;4398753;32;68022;-59
2023/07/20 12:50:06;;;;;;;2.62;1.48;;;;;;;;;;4387954;32;59667;-59
2023/07/20 12:52:55;;;;;;;3.92;2.20;;;;;;;;;;4387766;32;71720;-59
2023/07/20 12:55:41;;;;;;;2.97;1.65;;;;;;;;;;4387038;32;66652;-58
2023/07/20 12:58:28;;;;;;;2.15;1.80;;;;;;;;;;4387511;32;67953;-59
2023/07/20 13:01:15;;;;;;;1.60;1.48;;;;;;;;;;4377032;32;60030;-58
2023/07/20 13:04:02;;;;;;;3.50;1.87;;;;;;;;;;4398117;32;69400;-58
2023/07/20 13:06:49;;;;;;;2.17;1.20;;;;;;;;;;4386703;32;68226;-59
2023/07/20 13:09:36;;;;;;;3.28;1.50;;;;;;;;;;4365522;32;68323;-58
2023/07/20 13:12:23;;;;;;;3.83;1.48;;;;;;;;;;4386958;32;71973;-57
2023/07/20 13:15:10;;;;;;;;;;;;;;;;;;4398671;32;66033;-58
2023/07/20 13:17:57;;;;;;;4.82;1.60;;;;;;;;;;4365455;32;70008;-60
2023/07/20 13:20:43;;;;;;;2.80;1.37;;;;;;;;;;4376649;32;67743;-59
2023/07/20 13:23:31;;;;;;;2.80;1.20;;;;;;;;;;4365605;32;71579;-59
2023/07/20 13:26:17;;;;;;;2.72;1.80;;;;;;;;;;4387368;32;65987;-59
2023/07/20 13:29:04;;;;;;;3.60;1.87;;;;;;;;;;4397908;32;67976;-59
2023/07/20 13:31:51;;;;;;;3.08;1.90;;;;;;;;;;4376777;32;59083;-58
2023/07/20 13:34:38;;;;;;;3.25;1.80;;;;;;;;;;4386908;32;70349;-59
2023/07/20 13:37:25;;;;;;;4.78;1.70;;;;;;;;;;4397740;32;69424;-58
2023/07/20 13:40:16;;;;;;;1.83;1.30;;;;;;;;;;4386428;32;67155;-58
2023/07/20 13:43:03;;;;;;;3.35;1.67;;;;;;;;;;4387125;32;61034;-58
2023/07/20 13:45:50;;;;;;;2.30;1.70;;;;;;;;;;4387136;32;69616;-58
2023/07/20 13:48:36;;;;;;;2.78;2.10;;;;;;;;;;4376275;32;69235;-59
2023/07/20 13:51:23;;;;;;;2.53;1.67;;;;;;;;;;4386254;32;68913;-57
2023/07/20 13:54:09;;;;;;;2.12;1.50;;;;;;;;;;4375312;32;72857;-58
2023/07/20 13:56:57;;;;;;;1.70;1.48;;;;;;;;;;4397473;32;65325;-59
2023/07/20 13:59:43;;;;;;;;;;;;;;;;;;4398016;32;68048;-59
2023/07/20 14:02:30;;;;;;;3.25;1.62;;;;;;;;;;4387579;32;58878;-58
2023/07/20 14:05:38;;;;;;;3.15;1.80;;;;;;;;;;3847543;37;43506;-58
2023/07/20 14:08:25;;;;;;;3.72;1.70;;;;;;;;;;4399290;32;59534;-58
2023/07/20 14:11:15;;;;;;;2.62;1.60;;;;;;;;;;4377085;32;70403;-59
2023/07/20 14:14:02;;;;;;;2.47;1.83;;;;;;;;;;4409643;32;69466;-59
2023/07/20 14:16:48;;;;;;;3.20;2.00;;;;;;;;;;4377124;32;67221;-59
2023/07/20 14:19:37;;;;;;;3.12;2.25;;;;;;;;;;4409639;32;70698;-59
2023/07/20 14:22:23;;;;;;;1.95;1.40;;;;;;;;;;4388190;32;65144;-58
2023/07/20 14:25:10;;;;;;;;;;;;;;;;;;4409832;32;67292;-59
2023/07/20 14:27:56;;;;;;;3.75;2.10;;;;;;;;;;4399155;32;60096;-58
2023/07/20 14:30:43;;;;;;;3.78;1.85;;;;;;;;;;4408984;32;72436;-59
2023/07/20 14:33:29;;;;;;;;;;;;;;;;;;4409386;32;66998;-59
2023/07/20 14:36:16;;;;;;;2.30;1.60;;;;;;;;;;4409650;32;66846;-59
2023/07/20 14:39:03;;;;;;;3.92;1.87;;;;;;;;;;4388165;32;60127;-58
2023/07/20 14:41:51;;;;;;;4.05;1.83;;;;;;;;;;4387368;32;71197;-58
2023/07/20 14:44:37;;;;;;;3.95;1.42;;;;;;;;;;4398502;32;69229;-58
2023/07/20 14:47:23;;;;;;;2.30;1.45;;;;;;;;;;4409054;32;68317;-58
2023/07/20 14:50:10;;;;;;;1.73;1.55;;;;;;;;;;4398466;32;70673;-58
2023/07/20 14:52:57;;;;;;;4.22;1.90;;;;;;;;;;4398772;32;64856;-58
2023/07/20 14:55:44;;;;;;;2.75;1.62;;;;;;;;;;4398164;32;69392;-59
2023/07/20 14:58:32;;;;;;;4.22;2.05;;;;;;;;;;4387859;32;67617;-58
2023/07/20 15:01:18;;;;;;;3.62;1.80;;;;;;;;;;4398253;32;72109;-59
2023/07/20 15:04:05;;;;;;;3.37;1.87;;;;;;;;;;4408624;32;66489;-59
2023/07/20 15:06:51;;;;;;;2.62;1.62;;;;;;;;;;4397780;32;68185;-59
2023/07/20 15:09:38;;;;;;;2.58;1.90;;;;;;;;;;4409242;32;59784;-59
2023/07/20 15:12:24;;;;;;;5.50;1.80;;;;;;;;;;4386763;32;71226;-59
2023/07/20 15:15:12;;;;;;;;;;;;;;;;;;4407934;32;69362;-59
2023/07/20 15:17:58;;;;;;;2.23;1.50;;;;;;;;;;4376913;32;68659;-59
2023/07/20 15:20:44;;;;;;;;;;;;;;;;;;4377724;32;59852;-58
2023/07/20 15:23:30;;;;;;;4.37;2.05;;;;;;;;;;4388187;32;69623;-59
2023/07/20 15:26:17;;;;;;;;;;;;;;;;;;4398975;32;69580;-59
2023/07/20 15:29:03;;;;;;;4.12;1.90;;;;;;;;;;4366513;32;67590;-59
2023/07/20 15:31:50;;;;;;;2.08;1.50;;;;;;;;;;4387246;32;71918;-59
2023/07/20 15:34:37;;;;;;;5.30;2.00;;;;;;;;;;4366165;32;65801;-59
2023/07/20 15:37:24;;;;;;;6.10;2.55;;;;;;;;;;4398586;32;66614;-58
2023/07/20 15:40:11;;;;;;;2.90;1.92;;;;;;;;;;4388029;32;60664;-59
2023/07/20 15:42:58;;;;;;;5.95;1.92;;;;;;;;;;4388150;32;70853;-57
2023/07/20 15:45:50;;;;;;;3.53;1.55;;;;;;;;;;4399056;32;66228;-58
2023/07/20 15:48:37;;;;;;;2.30;1.37;;;;;;;;;;4388085;32;66656;-58
2023/07/20 15:51:23;;;;;;;5.03;1.85;;;;;;;;;;4366901;32;59844;-59
2023/07/20 15:54:11;;;;;;;2.65;1.17;;;;;;;;;;4387688;32;71499;-58
2023/07/20 15:57:00;;;;;;;3.45;1.15;;;;;;;;;;4377611;32;69214;-59
2023/07/20 15:59:47;;;;;;;2.87;1.30;;;;;;;;;;4398786;32;66937;-59
2023/07/20 16:02:33;;;;;;;;;;;;;;;;;;4388228;32;70704;-58
2023/07/20 16:05:20;;;;;;;3.15;1.62;;;;;;;;;;4388227;32;66110;-58
2023/07/20 16:08:07;;;;;;;3.72;1.65;;;;;;;;;;4399086;32;67128;-59
2023/07/20 16:10:57;;;;;;;3.10;1.60;;;;;;;;;;4387813;32;66825;-59
2023/07/20 16:13:44;;;;;;;3.47;1.35;;;;;;;;;;4387182;32;72248;-58
2023/07/20 16:16:33;;;;;;;3.25;1.67;;;;;;;;;;4388492;32;65714;-59
2023/07/20 16:19:20;;;;;;;6.03;2.80;;;;;;;;;;4398507;32;67692;-58
2023/07/20 16:22:08;;;;;;;;;;;;;;;;;;4399375;32;59343;-56
2023/07/20 16:24:55;;;;;;;4.20;2.20;;;;;;;;;;4376450;32;70620;-59
2023/07/20 16:27:41;;;;;;;4.30;2.30;;;;;;;;;;4386508;32;69830;-57
2023/07/20 16:30:28;;;;;;;;;;;;;;;;;;4401458;32;66691;-59
2023/07/20 16:33:15;;;;;;;1.57;1.40;;;;;;;;;;4367585;32;60132;-59
2023/07/20 16:36:02;;;;;;;4.07;1.37;;;;;;;;;;4399179;32;70599;-59
2023/07/20 16:38:49;;;;;;;3.15;1.42;;;;;;;;;;4399487;32;68463;-59
2023/07/20 16:41:35;;;;;;;2.72;1.40;;;;;;;;;;4387245;32;67639;-58
2023/07/20 16:44:22;;;;;;;3.87;1.42;;;;;;;;;;4397314;32;70850;-58
2023/07/20 16:47:10;;;;;;;1.95;1.20;;;;;;;;;;4375984;32;65923;-57
2023/07/20 16:49:57;;;;;;;5.05;1.23;;;;;;;;;;4387169;32;67367;-58
2023/07/20 16:52:43;;;;;;;;;;;;;;;;;;4398328;32;60074;-58
2023/07/20 16:55:31;;;;;;;5.23;1.43;;;;;;;;;;4399244;32;70056;-58
2023/07/20 16:58:20;;;;;;;2.05;1.45;;;;;;;;;;4376704;32;65813;-59
2023/07/20 17:01:07;;;;;;;1.80;1.30;;;;;;;;;;4386999;32;65397;-57